KBHM Airport Information

Runway Information
Runway 06 Length 10000 ft width 150 ft
Elevation 603 ft Threshold 0 ft Heading 55
Runway 24 Length 10000 ft Width 150 ft
Elevation 621 ft Threshold 1770 ft Heading 235
Runway 18 Length 7100 ft width 150 ft
Elevation 644 ft Threshold 1045 ft Heading 180
Runway 36 Length 7100 ft Width 150 ft
Elevation 633 ft Threshold 0 ft Heading 360
Airport Frequencies
Type A/D Name APP/DEP Frequency 123.8 MHZ
Type ATIS Name ATIS Frequency 119.4 MHZ
Type CLD Name CLNC DEL Frequency 125.675 MHZ
Type GND Name GND Frequency 121.7 MHZ
Type OPS Name ARNG OPS Frequency 38.7 MHZ
Type POST Name ANG COMD P Frequency 28.73 MHZ
Type RDO Name ANNISTON R Frequency 122.2 MHZ
Type TWR Name TWR Frequency 119.9 MHZ
Type UNIC Name UNICOM Frequency 122.95 MHZ
Airport Navaids
Type NDB Name Mcden Frequency 224 KHZ
Type NDB Name Roeby Frequency 394 KHZ
Type VORTAC Name Vulcan Frequency 114400 KHZ
Airport Weather Information & NOTAM
ADDS - METARS form results

(1907 UTC 22 June 2018)
 
METAR text: KBHM 221903Z 21016G30KT 2 1/2SM VCTS -RA SCT025CB BKN034 BKN044 23/21 A2989 RMK AO2 PK WND 20030/1857 VIS 1 1/2V5 LTG DSNT NE AND E TSE01 OCNL LTGIC VC W TS VC W MOV NE P0001 T02330206
Conditions at: KBHM (BIRMINGHAM , AL, US) observed 1903 UTC 22 June 2018
Temperature: 23.3°C (74°F)
Dewpoint: 20.6°C (69°F) [RH = 85%]
Pressure (altimeter): 29.89 inches Hg (1012.3 mb)
Winds: from the SSW (210 degrees) at 18 MPH (16 knots; 8.3 m/s)
gusting to 34 MPH (30 knots; 15.6 m/s)
Visibility: 2.50 miles (4.02 km)
Ceiling: 3400 feet AGL
Clouds: scattered clouds at 2500 feet AGL
broken clouds at 3400 feet AGL
broken clouds at 4400 feet AGL
Weather: VCTS -RA  (thunderstorm in vicinity, light rain)

METAR text: KBHM 221853Z 25016KT 10SM -TSRA SCT025 SCT036 BKN044CB BKN250 28/23 A2989 RMK AO2 LTG DSNT ALQDS RAB48 TSB46 SLP113 OCNL LTGICCG SW TS SW MOV NE P0000 T02780228
Conditions at: KBHM (BIRMINGHAM , AL, US) observed 1853 UTC 22 June 2018
Temperature: 27.8°C (82°F)
Dewpoint: 22.8°C (73°F) [RH = 74%]
Pressure (altimeter): 29.89 inches Hg (1012.3 mb)
[Sea-level pressure: 1011.3 mb]
Winds: from the WSW (250 degrees) at 18 MPH (16 knots; 8.3 m/s)
Visibility: 10 or more miles (16+ km)
Ceiling: 4400 feet AGL
Clouds: scattered clouds at 2500 feet AGL
scattered clouds at 3600 feet AGL
broken clouds at 4400 feet AGL
broken clouds at 25000 feet AGL
Weather: -TSRA  (light rain associated with thunderstorm(s))

METAR text: KBHM 221847Z 24015KT 10SM TS SCT025 SCT036 BKN044CB BKN250 28/23 A2988 RMK AO2 LTG DSNT ALQDS TSB46 OCNL LTGICCG SW TS SW MOV NE
Conditions at: KBHM (BIRMINGHAM , AL, US) observed 1847 UTC 22 June 2018
Temperature: 28.0°C (82°F)
Dewpoint: 23.0°C (73°F) [RH = 74%]
Pressure (altimeter): 29.88 inches Hg (1011.9 mb)
Winds: from the WSW (240 degrees) at 17 MPH (15 knots; 7.8 m/s)
Visibility: 10 or more miles (16+ km)
Ceiling: 4400 feet AGL
Clouds: scattered clouds at 2500 feet AGL
scattered clouds at 3600 feet AGL
broken clouds at 4400 feet AGL
broken clouds at 25000 feet AGL
Weather: TS  (thunderstorm)

METAR text: KBHM 221838Z 24011KT 10SM VCTS SCT025 SCT036 BKN044CB 28/23 A2989 RMK AO2 LTG DSNT N AND S AND NW OCNL LTGCG VC SW TS VC SW MOV NE T02830228
Conditions at: KBHM (BIRMINGHAM , AL, US) observed 1838 UTC 22 June 2018
Temperature: 28.3°C (83°F)
Dewpoint: 22.8°C (73°F) [RH = 72%]
Pressure (altimeter): 29.89 inches Hg (1012.3 mb)
Winds: from the WSW (240 degrees) at 13 MPH (11 knots; 5.7 m/s)
Visibility: 10 or more miles (16+ km)
Ceiling: 4400 feet AGL
Clouds: scattered clouds at 2500 feet AGL
scattered clouds at 3600 feet AGL
broken clouds at 4400 feet AGL
Weather: VCTS  (thunderstorm in vicinity)